sim
Sign-in with your pilot id or email,
or register
Callsign
Passwort

Schedule Details

Flight Number: DLH2661 (3)
Departure: Palma de Mallorca Airport (LEPA) at 17:35
Arrival: Munich Airport (EDDM) at 19:45
Route: Lufthansa Passenger Schedule. Enter filed route here before submitting Pirep.

Weather Information
Getting current METAR information for LEPA 191500Z 25013KT 9999 FEW018 28/17 Q1014 NOSIG
Getting current METAR information for EDDM 191450Z 05004KT 020V080 CAVOK 22/12 Q1018 NOSIG

Schedule Frequency

Route Map